createdAt,value
2022-08-10T00:01:02.638Z,1.70
2022-08-10T00:03:35.175Z,2.10
2022-08-10T00:06:05.027Z,2.13
2022-08-10T00:08:36.715Z,1.73
2022-08-10T00:11:06.813Z,1.75
2022-08-10T00:13:45.811Z,1.98
2022-08-10T00:16:20.729Z,1.70
2022-08-10T00:18:51.539Z,1.83
2022-08-10T00:21:21.430Z,1.80
2022-08-10T00:23:56.877Z,1.92
2022-08-10T00:26:26.741Z,1.98
2022-08-10T00:29:16.563Z,2.10
2022-08-10T00:31:58.833Z,1.55
2022-08-10T00:34:29.810Z,2.00
2022-08-10T00:37:00.439Z,1.90
2022-08-10T00:39:36.132Z,1.90
2022-08-10T00:42:09.210Z,1.70
2022-08-10T00:44:40.310Z,1.80
2022-08-10T00:47:35.765Z,1.98
2022-08-10T00:50:04.464Z,1.70
2022-08-10T00:52:35.791Z,1.70
2022-08-10T00:55:07.377Z,1.75
2022-08-10T00:57:37.934Z,1.92
2022-08-10T01:00:10.259Z,1.80
2022-08-10T01:02:42.879Z,1.90
2022-08-10T01:05:17.196Z,1.92
2022-08-10T01:08:19.643Z,1.80
2022-08-10T01:11:02.099Z,1.80
2022-08-10T01:13:37.399Z,1.80
2022-08-10T01:16:14.461Z,1.70
2022-08-10T01:18:56.353Z,1.83
2022-08-10T01:22:05.897Z,1.90
2022-08-10T01:25:06.127Z,1.90
2022-08-10T01:27:43.126Z,1.80
2022-08-10T01:30:18.329Z,1.98
2022-08-10T01:32:53.876Z,2.00
2022-08-10T01:35:31.624Z,2.28
2022-08-10T01:38:07.875Z,1.90
2022-08-10T01:40:42.349Z,2.10
2022-08-10T01:43:15.281Z,1.70
2022-08-10T01:45:50.967Z,2.05
2022-08-10T01:48:31.581Z,2.00
2022-08-10T01:51:21.856Z,1.70
2022-08-10T01:53:58.168Z,2.22
2022-08-10T01:56:31.009Z,2.00
2022-08-10T01:59:02.973Z,2.10
2022-08-10T02:01:43.143Z,2.10
2022-08-10T02:04:18.333Z,2.10
2022-08-10T02:06:51.565Z,1.98
2022-08-10T02:09:24.932Z,2.45
2022-08-10T02:12:07.030Z,2.10
2022-08-10T02:14:46.110Z,2.05
2022-08-10T02:17:59.563Z,2.00
2022-08-10T02:20:16.588Z,1.90
2022-08-10T02:22:48.476Z,2.13
2022-08-10T02:25:40.044Z,2.22
2022-08-10T02:28:12.662Z,1.75
2022-08-10T02:30:59.908Z,2.20
2022-08-10T02:33:37.051Z,2.33
2022-08-10T02:36:10.553Z,2.30
2022-08-10T02:38:59.831Z,2.10
2022-08-10T02:45:00.748Z,2.47
2022-08-10T02:45:27.061Z,2.45
2022-08-10T02:47:29.247Z,2.38
2022-08-10T02:50:28.161Z,2.05
2022-08-10T02:53:06.219Z,1.75
2022-08-10T02:55:43.214Z,2.10
2022-08-10T02:58:18.253Z,1.90
2022-08-10T03:00:53.746Z,2.00
2022-08-10T03:03:40.185Z,2.63
2022-08-10T03:06:16.881Z,2.28
2022-08-10T03:08:48.027Z,2.30
2022-08-10T03:12:34.995Z,2.10
2022-08-10T03:14:16.326Z,2.35
2022-08-10T03:16:48.554Z,2.38
2022-08-10T03:20:35.234Z,2.25
2022-08-10T03:22:14.246Z,1.90
2022-08-10T03:24:45.911Z,2.17
2022-08-10T03:27:17.171Z,2.40
2022-08-10T03:30:29.627Z,2.47
2022-08-10T03:32:38.160Z,2.08
2022-08-10T03:35:12.681Z,2.03
2022-08-10T03:37:45.356Z,2.35
2022-08-10T03:40:15.304Z,2.10
2022-08-10T03:42:47.082Z,2.30
2022-08-10T03:45:19.181Z,2.30
2022-08-10T03:47:50.555Z,2.35
2022-08-10T03:50:27.864Z,2.75
2022-08-10T03:54:02.405Z,2.55
2022-08-10T03:56:29.506Z,2.30
2022-08-10T03:58:54.498Z,3.50
2022-08-10T04:02:46.060Z,2.72
2022-08-10T04:04:23.575Z,2.80
2022-08-10T04:06:55.717Z,3.50
2022-08-10T04:09:53.504Z,4.55
2022-08-10T04:12:19.809Z,3.70
2022-08-10T04:14:52.798Z,3.85
2022-08-10T04:18:02.901Z,3.25
2022-08-10T04:20:22.154Z,3.53
2022-08-10T04:22:55.384Z,3.42
2022-08-10T04:25:29.088Z,3.40
2022-08-10T04:27:59.639Z,2.53
2022-08-10T04:30:30.585Z,2.78
2022-08-10T04:33:02.514Z,2.30
2022-08-10T04:35:34.733Z,2.50
2022-08-10T04:38:12.853Z,2.75
2022-08-10T04:40:46.237Z,2.50
2022-08-10T04:43:16.243Z,2.40
2022-08-10T04:45:51.451Z,2.83
2022-08-10T04:48:42.743Z,2.40
2022-08-10T04:51:17.698Z,2.42
2022-08-10T04:54:04.022Z,2.20
2022-08-10T04:56:42.159Z,2.40
2022-08-10T04:59:13.899Z,2.13
2022-08-10T05:02:27.837Z,2.40
2022-08-10T05:04:37.776Z,2.20
2022-08-10T05:07:10.400Z,1.73
2022-08-10T05:10:05.057Z,2.22
2022-08-10T05:12:35.697Z,2.10
2022-08-10T05:15:08.118Z,2.10
2022-08-10T05:17:38.837Z,2.22
2022-08-10T05:20:11.275Z,2.00
2022-08-10T05:22:43.528Z,1.65
2022-08-10T05:25:22.217Z,2.22
2022-08-10T05:27:57.460Z,2.20
2022-08-10T05:30:27.652Z,2.15
2022-08-10T05:33:01.622Z,2.25
2022-08-10T05:35:56.439Z,2.30
2022-08-10T05:38:25.908Z,2.00
2022-08-10T05:40:59.767Z,2.28
2022-08-10T05:43:32.296Z,2.10
2022-08-10T05:46:17.455Z,2.22
2022-08-10T05:48:59.079Z,2.55
2022-08-10T05:51:31.464Z,1.85
2022-08-10T05:54:06.457Z,2.03
2022-08-10T05:56:55.787Z,2.15
2022-08-10T06:00:11.020Z,2.17
2022-08-10T06:02:30.876Z,1.88
2022-08-10T06:05:08.405Z,2.38
2022-08-10T06:07:43.137Z,2.00
2022-08-10T06:10:19.648Z,2.20
2022-08-10T06:13:29.654Z,1.90
2022-08-10T06:16:10.927Z,2.10
2022-08-10T06:18:40.810Z,1.90
2022-08-10T06:21:11.230Z,1.90
2022-08-10T06:23:41.760Z,2.10
2022-08-10T06:26:14.956Z,2.33
2022-08-10T06:28:52.826Z,2.55
2022-08-10T06:31:47.085Z,1.80
2022-08-10T06:34:21.949Z,2.10
2022-08-10T06:36:53.097Z,2.22
2022-08-10T06:39:39.841Z,2.00
2022-08-10T06:42:18.999Z,2.28
2022-08-10T06:45:01.842Z,2.03
2022-08-10T06:47:44.248Z,2.20
2022-08-10T06:50:44.662Z,1.90
2022-08-10T06:53:13.806Z,2.28
2022-08-10T06:55:55.148Z,2.00
2022-08-10T06:58:31.255Z,2.20
2022-08-10T07:01:05.402Z,1.63
2022-08-10T07:06:10.623Z,2.03
2022-08-10T07:08:42.484Z,1.80
2022-08-10T07:11:18.227Z,1.77
2022-08-10T07:14:17.512Z,1.88
2022-08-10T07:16:42.648Z,1.80
2022-08-10T07:19:16.470Z,1.95
2022-08-10T07:21:47.806Z,1.77
2022-08-10T07:24:19.199Z,2.00
2022-08-10T07:26:53.059Z,1.75
2022-08-10T07:29:53.760Z,1.48
2022-08-10T07:32:18.695Z,2.10
2022-08-10T07:34:53.536Z,1.80
2022-08-10T07:37:26.389Z,2.08
2022-08-10T07:40:03.936Z,1.95
2022-08-10T07:42:35.888Z,1.88
2022-08-10T07:45:06.896Z,1.60
2022-08-10T07:47:52.369Z,1.85
2022-08-10T07:50:28.371Z,1.77
2022-08-10T07:53:05.319Z,1.70
2022-08-10T07:56:04.177Z,1.58
2022-08-10T07:58:31.769Z,1.88
2022-08-10T08:01:02.810Z,1.80
2022-08-10T08:03:33.663Z,1.70
2022-08-10T08:06:11.733Z,1.60
2022-08-10T08:08:45.698Z,1.55
2022-08-10T08:11:26.338Z,1.50
2022-08-10T08:13:58.490Z,1.50
2022-08-10T08:16:28.854Z,1.65
2022-08-10T08:24:07.518Z,1.45
2022-08-10T08:24:44.749Z,1.17
2022-08-10T08:27:16.821Z,1.50
2022-08-10T08:29:48.918Z,1.30
2022-08-10T08:32:22.200Z,1.60
2022-08-10T08:34:56.272Z,1.60
2022-08-10T08:40:26.126Z,1.50
2022-08-10T08:43:23.041Z,1.50
2022-08-10T08:46:28.729Z,1.48
2022-08-10T08:50:04.809Z,1.73
2022-08-10T08:52:18.924Z,1.40
2022-08-10T08:56:04.021Z,1.65
2022-08-10T08:58:08.568Z,1.52
2022-08-10T09:00:46.397Z,1.40
2022-08-10T09:03:39.645Z,1.23
2022-08-10T09:06:24.359Z,1.38
2022-08-10T09:09:21.147Z,1.42
2022-08-10T09:12:08.941Z,1.73
2022-08-10T09:14:47.192Z,1.25
2022-08-10T09:17:25.825Z,1.40
2022-08-10T09:20:01.567Z,1.30
2022-08-10T09:22:36.814Z,1.27
2022-08-10T09:25:17.353Z,1.30
2022-08-10T09:27:51.498Z,1.50
2022-08-10T09:30:32.140Z,1.40
2022-08-10T09:36:24.406Z,1.40
2022-08-10T09:36:32.470Z,1.40
2022-08-10T09:40:05.979Z,1.60
2022-08-10T09:42:15.208Z,1.15
2022-08-10T09:44:58.931Z,1.17
2022-08-10T09:48:02.682Z,1.58
2022-08-10T09:51:28.039Z,1.30
2022-08-10T09:53:58.661Z,1.10
2022-08-10T09:56:36.230Z,1.50
2022-08-10T09:59:29.151Z,1.60
2022-08-10T10:02:21.348Z,1.30
2022-08-10T10:05:05.638Z,1.20
2022-08-10T10:10:14.996Z,0.98
2022-08-10T10:12:53.761Z,1.10
2022-08-10T10:15:34.262Z,1.17
2022-08-10T10:18:22.720Z,2.03
2022-08-10T10:21:01.804Z,1.20
2022-08-10T10:23:59.725Z,1.38
2022-08-10T10:26:44.007Z,1.30
2022-08-10T10:29:58.001Z,1.38
2022-08-10T10:32:32.092Z,1.52
2022-08-10T10:35:18.282Z,1.30
2022-08-10T10:38:00.919Z,1.35
2022-08-10T10:40:44.816Z,1.25
2022-08-10T10:43:28.802Z,1.42
2022-08-10T10:46:07.568Z,1.52
2022-08-10T10:48:42.968Z,1.33
2022-08-10T10:51:21.137Z,1.45
2022-08-10T10:53:59.708Z,1.80
2022-08-10T10:56:38.480Z,1.20
2022-08-10T10:59:53.845Z,1.40
2022-08-10T11:02:21.858Z,1.15
2022-08-10T11:05:00.713Z,1.30
2022-08-10T11:07:42.804Z,1.50
2022-08-10T11:10:32.763Z,1.30
2022-08-10T11:14:27.563Z,1.20
2022-08-10T11:16:11.286Z,1.20
2022-08-10T11:18:57.596Z,1.27
2022-08-10T11:21:58.148Z,1.40
2022-08-10T11:24:47.977Z,1.20
2022-08-10T11:27:28.051Z,1.40
2022-08-10T11:30:05.105Z,1.30
2022-08-10T11:32:45.704Z,1.20
2022-08-10T11:35:25.377Z,1.13
2022-08-10T11:38:31.668Z,1.50
2022-08-10T11:42:05.529Z,1.25
2022-08-10T11:44:03.448Z,1.30
2022-08-10T11:46:36.460Z,1.13
2022-08-10T11:49:14.774Z,1.20
2022-08-10T11:51:48.521Z,1.10
2022-08-10T11:54:28.465Z,1.30
2022-08-10T11:57:03.111Z,1.30
2022-08-10T11:59:48.517Z,1.27
2022-08-10T12:02:22.321Z,1.30
2022-08-10T12:04:55.342Z,1.17
2022-08-10T12:10:07.010Z,1.17
2022-08-10T12:10:17.099Z,1.17
2022-08-10T12:12:56.670Z,1.17
2022-08-10T12:15:34.070Z,1.30
2022-08-10T12:18:09.831Z,1.33
2022-08-10T12:20:41.785Z,1.15
2022-08-10T12:23:18.356Z,1.30
2022-08-10T12:25:58.747Z,1.35
2022-08-10T12:28:50.750Z,1.38
2022-08-10T12:31:26.693Z,1.23
2022-08-10T12:34:08.163Z,1.52
2022-08-10T12:36:43.596Z,1.17
2022-08-10T12:39:19.425Z,1.40
2022-08-10T12:41:55.674Z,1.00
2022-08-10T12:44:41.076Z,1.15
2022-08-10T12:47:20.750Z,1.00
2022-08-10T12:50:29.799Z,1.30
2022-08-10T12:52:54.734Z,1.10
2022-08-10T12:55:26.097Z,1.60
2022-08-10T12:57:58.665Z,1.35
2022-08-10T13:00:53.848Z,1.60
2022-08-10T13:04:21.324Z,1.27
2022-08-10T13:06:20.259Z,1.40
2022-08-10T13:09:03.121Z,1.20
2022-08-10T13:12:38.120Z,1.35
2022-08-10T13:14:29.779Z,1.30
2022-08-10T13:17:05.283Z,1.63
2022-08-10T13:19:55.162Z,1.58
2022-08-10T13:22:30.439Z,1.80
2022-08-10T13:28:00.864Z,1.33
2022-08-10T13:30:35.586Z,1.40
2022-08-10T13:33:13.914Z,1.40
2022-08-10T13:35:47.632Z,1.38
2022-08-10T13:38:26.756Z,1.20
2022-08-10T13:40:57.781Z,1.52
2022-08-10T13:43:29.796Z,1.35
2022-08-10T13:46:01.786Z,1.20
2022-08-10T13:48:36.424Z,1.23
2022-08-10T13:51:06.846Z,1.20
2022-08-10T13:53:38.336Z,1.48
2022-08-10T13:56:13.302Z,1.38
2022-08-10T13:58:45.696Z,1.10
2022-08-10T14:01:17.766Z,1.40
2022-08-10T14:03:52.358Z,1.30
2022-08-10T14:06:29.640Z,1.48
2022-08-10T14:09:04.952Z,1.20
2022-08-10T14:11:38.663Z,1.20
2022-08-10T14:14:11.812Z,1.27
2022-08-10T14:16:45.468Z,1.48
2022-08-10T14:19:22.279Z,1.27
2022-08-10T14:21:52.813Z,1.20
2022-08-10T14:24:25.288Z,1.27
2022-08-10T14:27:07.561Z,1.10
2022-08-10T14:29:45.072Z,1.10
2022-08-10T14:32:17.875Z,1.35
2022-08-10T14:36:16.226Z,1.27
2022-08-10T14:37:50.823Z,1.40
2022-08-10T14:40:22.607Z,1.42
2022-08-10T14:43:01.711Z,1.08
2022-08-10T14:45:37.132Z,1.00
2022-08-10T14:48:13.371Z,1.17
2022-08-10T14:50:55.376Z,1.50
2022-08-10T14:53:28.599Z,1.27
2022-08-10T14:56:03.117Z,1.35
2022-08-10T14:58:35.739Z,1.35
2022-08-10T15:01:10.300Z,1.25
2022-08-10T15:04:01.028Z,1.10
2022-08-10T15:06:43.037Z,1.33
2022-08-10T15:09:19.887Z,1.33
2022-08-10T15:12:15.402Z,1.20
2022-08-10T15:14:48.638Z,1.33
2022-08-10T15:17:27.234Z,1.35
2022-08-10T15:20:02.280Z,1.13
2022-08-10T15:22:38.819Z,1.48
2022-08-10T15:27:54.966Z,1.20
2022-08-10T15:30:31.832Z,1.35
2022-08-10T15:33:21.470Z,1.27
2022-08-10T15:36:22.334Z,1.20
2022-08-10T15:39:03.581Z,1.23
2022-08-10T15:41:58.502Z,1.10
2022-08-10T15:44:40.806Z,1.20
2022-08-10T15:47:15.613Z,1.30
2022-08-10T15:49:54.632Z,1.30
2022-08-10T15:52:39.504Z,1.35
2022-08-10T15:55:43.568Z,1.20
2022-08-10T15:58:37.465Z,1.30
2022-08-10T16:02:12.777Z,1.27
2022-08-10T16:04:09.957Z,1.20
2022-08-10T16:06:45.517Z,1.15
2022-08-10T16:10:23.637Z,1.40
2022-08-10T16:12:17.558Z,1.30
2022-08-10T16:15:03.366Z,1.20
2022-08-10T16:17:54.278Z,1.15
2022-08-10T16:20:31.627Z,1.58
2022-08-10T16:23:04.878Z,1.85
2022-08-10T16:25:51.656Z,2.58
2022-08-10T16:28:37.794Z,2.05
2022-08-10T16:31:15.634Z,1.42
2022-08-10T16:33:57.295Z,1.00
2022-08-10T16:36:35.010Z,1.25
2022-08-10T16:39:17.992Z,1.55
2022-08-10T16:42:05.810Z,1.70
2022-08-10T16:44:43.460Z,1.60
2022-08-10T16:47:14.840Z,1.30
2022-08-10T16:49:45.669Z,1.23
2022-08-10T16:52:17.121Z,1.33
2022-08-10T16:54:55.267Z,1.42
2022-08-10T16:57:27.801Z,1.40
2022-08-10T17:00:01.107Z,1.48
2022-08-10T17:02:34.656Z,1.30
2022-08-10T17:05:06.321Z,1.20
2022-08-10T17:07:40.371Z,1.20
2022-08-10T17:10:14.221Z,1.23
2022-08-10T17:12:45.749Z,1.30
2022-08-10T17:15:18.592Z,1.38
2022-08-10T17:17:52.253Z,1.30
2022-08-10T17:20:31.652Z,1.60
2022-08-10T17:23:06.403Z,1.42
2022-08-10T17:28:33.079Z,1.73
2022-08-10T17:31:23.464Z,1.50
2022-08-10T17:33:59.025Z,2.10
2022-08-10T17:36:35.615Z,1.48
2022-08-10T17:39:11.516Z,1.75
2022-08-10T17:41:43.896Z,1.45
2022-08-10T17:44:13.957Z,1.60
2022-08-10T17:46:48.325Z,1.35
2022-08-10T17:49:20.556Z,1.50
2022-08-10T17:51:54.758Z,1.52
2022-08-10T17:54:30.702Z,1.50
2022-08-10T17:57:03.166Z,1.92
2022-08-10T17:59:34.845Z,1.58
2022-08-10T18:02:11.093Z,1.60
2022-08-10T18:04:42.834Z,1.30
2022-08-10T18:07:14.293Z,1.80
2022-08-10T18:09:53.758Z,1.92
2022-08-10T18:12:33.969Z,1.90
2022-08-10T18:15:12.236Z,1.90
2022-08-10T18:17:51.022Z,1.50
2022-08-10T18:20:27.832Z,1.63
2022-08-10T18:22:59.970Z,1.88
2022-08-10T18:25:34.642Z,1.77
2022-08-10T18:28:07.783Z,1.85
2022-08-10T18:30:46.018Z,1.90
2022-08-10T18:33:20.881Z,2.08
2022-08-10T18:35:54.903Z,1.80
2022-08-10T18:38:26.420Z,1.75
2022-08-10T18:41:02.717Z,1.80
2022-08-10T18:44:07.045Z,2.10
2022-08-10T18:46:32.579Z,2.20
2022-08-10T18:49:08.665Z,2.25
2022-08-10T18:51:46.569Z,2.00
2022-08-10T18:54:39.190Z,1.60
2022-08-10T19:00:04.042Z,1.80
2022-08-10T19:02:52.051Z,1.67
2022-08-10T19:05:37.654Z,1.77
2022-08-10T19:08:31.130Z,1.80
2022-08-10T19:11:06.443Z,1.85
2022-08-10T19:13:54.931Z,2.30
2022-08-10T19:16:48.827Z,2.30
2022-08-10T19:19:30.890Z,2.30
2022-08-10T19:22:08.672Z,1.95
2022-08-10T19:24:50.498Z,2.20
2022-08-10T19:27:33.920Z,2.17
2022-08-10T19:30:12.953Z,2.03
2022-08-10T19:33:05.142Z,1.80
2022-08-10T19:36:03.989Z,2.10
2022-08-10T19:38:49.417Z,2.17
2022-08-10T19:41:32.352Z,1.73
2022-08-10T19:44:19.217Z,1.83
2022-08-10T19:46:54.583Z,2.00
2022-08-10T19:49:39.925Z,1.77
2022-08-10T19:52:22.540Z,2.15
2022-08-10T19:55:03.110Z,1.63
2022-08-10T19:57:38.637Z,2.30
2022-08-10T20:00:18.599Z,2.00
2022-08-10T20:03:07.523Z,1.77
2022-08-10T20:06:18.557Z,1.42
2022-08-10T20:08:54.935Z,1.60
2022-08-10T20:11:44.799Z,1.80
2022-08-10T20:14:23.068Z,1.60
2022-08-10T20:16:57.541Z,1.80
2022-08-10T20:19:53.530Z,2.20
2022-08-10T20:22:30.403Z,1.90
2022-08-10T20:25:09.457Z,1.90
2022-08-10T20:27:59.819Z,1.70
2022-08-10T20:30:35.263Z,1.80
2022-08-10T20:33:12.362Z,2.15
2022-08-10T20:35:53.414Z,1.90
2022-08-10T20:38:27.505Z,1.73
2022-08-10T20:41:11.356Z,2.00
2022-08-10T20:43:50.253Z,1.80
2022-08-10T20:46:28.000Z,1.98
2022-08-10T20:49:01.831Z,2.22
2022-08-10T20:51:58.269Z,2.30
2022-08-10T20:54:35.118Z,1.83
2022-08-10T20:57:56.555Z,1.70
2022-08-10T21:00:44.115Z,2.58
2022-08-10T21:03:33.151Z,2.30
2022-08-10T21:06:41.088Z,2.00
2022-08-10T21:09:23.564Z,2.72
2022-08-10T21:12:21.390Z,2.17
2022-08-10T21:15:02.757Z,2.13
2022-08-10T21:17:48.323Z,2.00
2022-08-10T21:20:30.943Z,1.90
2022-08-10T21:23:05.850Z,1.67
2022-08-10T21:25:46.664Z,2.00
2022-08-10T21:28:40.569Z,2.03
2022-08-10T21:31:28.069Z,2.70
2022-08-10T21:34:32.129Z,2.25
2022-08-10T21:37:03.714Z,2.83
2022-08-10T21:40:35.152Z,2.38
2022-08-10T21:43:44.472Z,2.00
2022-08-10T21:46:36.358Z,2.13
2022-08-10T21:52:38.710Z,1.75
2022-08-10T21:55:57.944Z,1.73
2022-08-10T21:58:47.813Z,1.90
2022-08-10T22:01:40.624Z,2.30
2022-08-10T22:04:25.891Z,1.70
2022-08-10T22:07:10.157Z,1.80
2022-08-10T22:09:58.643Z,2.20
2022-08-10T22:12:47.366Z,2.10
2022-08-10T22:16:03.467Z,2.10
2022-08-10T22:18:58.707Z,2.10
2022-08-10T22:21:55.387Z,2.15
2022-08-10T22:24:44.717Z,2.03
2022-08-10T22:27:47.375Z,2.10
2022-08-10T22:30:34.500Z,1.88
2022-08-10T22:31:26.982Z,1.95
2022-08-10T22:33:31.167Z,2.17
2022-08-10T22:36:40.414Z,2.05
2022-08-10T22:40:10.148Z,1.98
2022-08-10T22:42:58.986Z,1.80
2022-08-10T22:45:46.331Z,2.10
2022-08-10T22:48:28.838Z,1.83
2022-08-10T22:51:02.919Z,2.05
2022-08-10T22:53:49.834Z,2.40
2022-08-10T22:56:38.124Z,2.35
2022-08-10T22:59:09.939Z,2.05
2022-08-10T23:02:07.798Z,2.40
2022-08-10T23:04:47.313Z,2.10
2022-08-10T23:07:24.199Z,2.00
2022-08-10T23:10:00.744Z,2.30
2022-08-10T23:12:38.870Z,2.10
2022-08-10T23:15:32.082Z,2.17
2022-08-10T23:18:16.580Z,1.98
2022-08-10T23:20:48.267Z,2.17
2022-08-10T23:23:24.342Z,1.90
2022-08-10T23:25:58.375Z,2.30
2022-08-10T23:28:38.221Z,2.35
2022-08-10T23:31:13.797Z,2.13
2022-08-10T23:36:33.501Z,2.10
2022-08-10T23:39:26.038Z,2.15
2022-08-10T23:42:04.885Z,2.00
2022-08-10T23:44:46.095Z,2.00
2022-08-10T23:47:20.289Z,2.28
2022-08-10T23:49:54.843Z,2.28
2022-08-10T23:52:28.333Z,2.03
2022-08-10T23:55:00.775Z,2.50
2022-08-10T23:57:32.097Z,2.10
